Time;durP1;ratioP1;P1;durP2;ratioP2;P2;SDS_P1;SDS_P2;PMS_P1;PMS_P2;Temp;Humidity;BMP_temperature;BMP_pressure;BME280_temperature;BME280_humidity;BME280_pressure;Samples;Min_cycle;Max_cycle;Signal;HPM_P1;HPM_P2
2023/03/05 04:00:16;;;;;;;47.80;27.07;;;2.60;99.90;;;;;;5905543;23;20182;-76
2023/03/05 04:02:42;;;;;;;53.97;27.97;;;2.60;99.90;;;;;;4939416;29;20202;-78
2023/03/05 04:05:08;;;;;;;46.13;27.97;;;2.70;99.90;;;;;;4942796;29;20197;-76
2023/03/05 04:07:34;;;;;;;49.07;29.53;;;2.70;99.90;;;;;;4951761;28;20273;-76
2023/03/05 04:09:59;;;;;;;53.37;32.90;;;2.70;99.90;;;;;;4954378;28;20209;-77
2023/03/05 04:12:25;;;;;;;52.47;32.83;;;2.70;99.90;;;;;;4956073;29;20205;-77
2023/03/05 04:14:51;;;;;;;51.10;36.60;;;2.70;99.90;;;;;;4954364;28;20181;-76
2023/03/05 04:17:17;;;;;;;50.60;37.70;;;2.70;99.90;;;;;;4955274;28;20182;-77
2023/03/05 04:19:44;;;;;;;57.13;38.60;;;2.70;99.90;;;;;;4955613;29;20344;-76
2023/03/05 04:22:14;;;;;;;57.23;37.70;;;2.70;99.90;;;;;;4955239;29;21091;-76
2023/03/05 04:24:41;;;;;;;51.40;36.27;;;2.70;99.90;;;;;;4944787;28;20182;-76
2023/03/05 04:27:07;;;;;;;49.80;33.97;;;2.70;99.90;;;;;;4944162;29;20179;-77
2023/03/05 04:29:33;;;;;;;49.33;33.47;;;2.70;99.90;;;;;;4935317;29;20210;-76
2023/03/05 04:31:59;;;;;;;45.60;28.00;;;2.70;99.90;;;;;;4937376;29;20206;-76
2023/03/05 04:34:25;;;;;;;44.23;26.70;;;2.70;99.90;;;;;;4944240;28;20241;-77
2023/03/05 04:36:51;;;;;;;45.70;25.73;;;2.70;99.90;;;;;;4957059;29;20221;-77
2023/03/05 04:39:19;;;;;;;48.77;25.40;;;2.70;99.90;;;;;;4956202;28;20177;-77
2023/03/05 04:41:46;;;;;;;41.80;24.87;;;2.70;99.90;;;;;;4955784;29;20257;-77
2023/03/05 04:44:12;;;;;;;41.83;24.10;;;2.70;99.90;;;;;;4949948;29;20189;-77
2023/03/05 04:46:38;;;;;;;41.77;24.73;;;2.70;99.90;;;;;;4941900;29;20260;-77
2023/03/05 04:49:04;;;;;;;43.63;24.73;;;2.70;99.90;;;;;;4944471;29;20257;-77
2023/03/05 04:51:29;;;;;;;49.90;26.17;;;2.70;99.90;;;;;;4950614;29;20299;-77
2023/03/05 04:53:55;;;;;;;51.57;24.57;;;2.80;99.90;;;;;;4953452;29;20229;-78
2023/03/05 04:56:21;;;;;;;44.83;26.63;;;2.80;99.90;;;;;;4976814;28;20268;-77
2023/03/05 04:58:47;;;;;;;45.00;27.33;;;2.80;99.90;;;;;;4977496;28;20237;-77
2023/03/05 05:01:12;;;;;;;45.33;26.97;;;2.80;99.90;;;;;;4976864;28;20217;-78
2023/03/05 05:03:38;;;;;;;45.77;25.50;;;2.80;99.90;;;;;;4975713;29;20220;-78
2023/03/05 05:06:04;;;;;;;47.97;26.33;;;2.80;99.90;;;;;;4958892;29;20199;-77
2023/03/05 05:08:30;;;;;;;42.73;26.87;;;2.80;99.90;;;;;;4952558;29;20287;-78
2023/03/05 05:11:01;;;;;;;48.00;26.20;;;2.80;99.90;;;;;;4947006;29;20242;-78
2023/03/05 05:13:28;;;;;;;39.60;23.63;;;2.80;99.90;;;;;;4947783;29;20197;-78
2023/03/05 05:15:54;;;;;;;44.07;25.10;;;2.80;99.90;;;;;;4965557;28;20217;-78
2023/03/05 05:18:20;;;;;;;46.43;26.67;;;2.80;99.90;;;;;;4963928;28;20198;-77
2023/03/05 05:20:47;;;;;;;43.37;24.83;;;2.80;99.90;;;;;;4962908;28;20607;-78
2023/03/05 05:23:12;;;;;;;44.47;24.60;;;2.80;99.90;;;;;;4956119;28;20190;-77
2023/03/05 05:25:38;;;;;;;43.97;25.67;;;2.80;99.90;;;;;;4940776;29;20183;-77
2023/03/05 05:28:04;;;;;;;42.67;25.00;;;2.80;99.90;;;;;;4920880;29;20195;-77
2023/03/05 05:30:30;;;;;;;47.77;26.60;;;2.80;99.90;;;;;;4919467;29;20199;-78
2023/03/05 05:32:56;;;;;;;48.23;26.97;;;2.80;99.90;;;;;;4921565;29;20793;-77
2023/03/05 05:35:22;;;;;;;44.07;25.03;;;2.80;99.90;;;;;;4952064;28;20221;-77
2023/03/05 05:37:48;;;;;;;44.33;26.67;;;2.90;99.90;;;;;;4964226;29;20177;-78
2023/03/05 05:40:14;;;;;;;45.90;25.40;;;2.80;99.90;;;;;;4962870;28;20184;-78
2023/03/05 05:42:40;;;;;;;38.40;23.60;;;2.80;99.90;;;;;;4964503;28;20296;-77
2023/03/05 05:45:06;;;;;;;45.77;25.77;;;2.80;99.90;;;;;;4949159;29;20206;-78
2023/03/05 05:47:32;;;;;;;44.77;26.00;;;2.80;99.90;;;;;;4940083;29;20197;-78
2023/03/05 05:49:58;;;;;;;46.93;27.50;;;2.80;99.90;;;;;;4946838;29;20190;-77
2023/03/05 05:52:23;;;;;;;45.33;27.43;;;2.80;99.90;;;;;;4943343;29;20210;-77
2023/03/05 05:54:49;;;;;;;46.80;27.60;;;2.90;99.90;;;;;;4945430;29;20277;-72
2023/03/05 05:57:15;;;;;;;44.83;26.80;;;2.80;99.90;;;;;;4954810;28;20186;-72
2023/03/05 05:59:41;;;;;;;44.87;26.20;;;2.90;99.90;;;;;;4954478;28;20189;-72
2023/03/05 06:02:07;;;;;;;53.67;27.87;;;2.80;99.90;;;;;;4954384;28;20303;-72
2023/03/05 06:04:34;;;;;;;51.20;28.37;;;2.80;99.90;;;;;;4946351;28;20277;-74
2023/03/05 06:07:01;;;;;;;43.67;25.80;;;2.90;99.90;;;;;;4939075;29;20194;-73
2023/03/05 06:09:27;;;;;;;52.90;26.60;;;2.80;99.90;;;;;;4935780;29;20183;-69
2023/03/05 06:11:53;;;;;;;46.97;27.07;;;2.80;99.90;;;;;;4919620;29;20277;-70
2023/03/05 06:14:19;;;;;;;50.57;27.73;;;2.80;99.90;;;;;;4925331;29;20186;-69
2023/03/05 06:16:45;;;;;;;50.50;28.70;;;2.80;99.90;;;;;;4946824;28;20210;-73
2023/03/05 06:19:12;;;;;;;47.03;26.87;;;2.80;99.90;;;;;;4933773;29;20244;-73
2023/03/05 06:21:37;;;;;;;49.47;28.50;;;2.90;99.90;;;;;;4935172;29;20277;-73
2023/03/05 06:24:04;;;;;;;49.53;26.73;;;2.90;99.90;;;;;;4936322;28;20265;-73
2023/03/05 06:26:30;;;;;;;48.83;26.80;;;2.90;99.90;;;;;;4954024;29;20267;-73
2023/03/05 06:28:56;;;;;;;44.67;25.17;;;3.00;99.90;;;;;;4945289;29;20273;-73
2023/03/05 06:31:24;;;;;;;43.43;26.00;;;2.90;99.90;;;;;;4933729;29;20241;-73
2023/03/05 06:33:51;;;;;;;46.47;26.17;;;3.00;99.90;;;;;;4934922;29;20192;-72
2023/03/05 06:36:19;;;;;;;48.03;27.03;;;3.00;99.90;;;;;;4953863;28;20210;-73
2023/03/05 06:38:45;;;;;;;42.67;26.03;;;3.00;99.90;;;;;;4953642;28;20225;-73
2023/03/05 06:41:14;;;;;;;46.57;26.83;;;3.00;99.90;;;;;;4952511;29;20206;-73
2023/03/05 06:43:42;;;;;;;51.60;27.93;;;3.00;99.90;;;;;;4952786;29;20181;-73
2023/03/05 06:46:15;;;;;;;41.80;26.10;;;3.00;99.90;;;;;;4934773;29;20186;-73
2023/03/05 06:48:42;;;;;;;49.07;26.83;;;3.00;99.90;;;;;;4934189;29;20276;-73
2023/03/05 06:51:18;;;;;;;48.17;27.37;;;3.00;99.90;;;;;;4933445;29;20206;-73
2023/03/05 06:53:44;;;;;;;50.77;27.00;;;3.10;99.90;;;;;;4935458;29;20177;-73
2023/03/05 06:56:10;;;;;;;52.77;26.67;;;3.10;99.90;;;;;;4952743;28;20206;-73
2023/03/05 06:58:36;;;;;;;46.33;25.80;;;3.10;99.90;;;;;;4953714;29;20205;-73
2023/03/05 07:01:05;;;;;;;51.47;25.53;;;3.20;99.90;;;;;;4952552;28;20292;-73
2023/03/05 07:03:31;;;;;;;43.67;26.47;;;3.20;99.90;;;;;;4953496;28;20210;-73
2023/03/05 07:05:56;;;;;;;48.40;26.03;;;3.30;99.90;;;;;;4949374;29;20244;-73
2023/03/05 07:08:22;;;;;;;44.53;26.20;;;3.30;99.90;;;;;;4951505;29;20185;-72
2023/03/05 07:10:48;;;;;;;43.63;25.87;;;3.40;99.90;;;;;;4953324;29;20544;-72
2023/03/05 07:13:14;;;;;;;50.10;25.50;;;3.40;99.90;;;;;;4952635;29;20186;-72
2023/03/05 07:15:40;;;;;;;43.50;24.23;;;3.40;99.90;;;;;;4952799;28;20205;-72
2023/03/05 07:18:06;;;;;;;48.50;25.63;;;3.40;99.90;;;;;;4953538;28;20192;-72
2023/03/05 07:20:36;;;;;;;44.37;26.17;;;3.40;99.90;;;;;;4952135;28;20276;-71
2023/03/05 07:23:02;;;;;;;46.67;26.03;;;3.50;99.90;;;;;;4953471;29;20184;-73
2023/03/05 07:25:29;;;;;;;44.43;25.40;;;3.50;99.90;;;;;;4940284;29;20552;-72
2023/03/05 07:27:55;;;;;;;49.53;26.30;;;3.50;99.90;;;;;;4935601;29;20193;-72
2023/03/05 07:30:21;;;;;;;49.30;27.30;;;3.50;99.90;;;;;;4934331;29;20269;-73
2023/03/05 07:32:47;;;;;;;50.07;27.20;;;3.50;99.90;;;;;;4934435;29;20677;-72
2023/03/05 07:35:13;;;;;;;45.33;25.53;;;3.60;99.90;;;;;;4943786;29;20545;-72
2023/03/05 07:37:39;;;;;;;48.70;25.97;;;3.60;99.90;;;;;;4953206;28;20268;-72
2023/03/05 07:40:05;;;;;;;46.90;25.27;;;3.60;99.90;;;;;;4952221;29;20274;-72
2023/03/05 07:42:31;;;;;;;54.27;28.00;;;3.70;99.90;;;;;;4953364;28;20205;-72
2023/03/05 07:44:57;;;;;;;47.07;26.40;;;3.70;99.90;;;;;;4943899;29;20217;-72
2023/03/05 07:47:23;;;;;;;45.27;26.70;;;3.80;99.90;;;;;;4934350;29;20222;-72
2023/03/05 07:49:49;;;;;;;51.37;28.33;;;3.80;99.90;;;;;;4933773;29;20674;-72
2023/03/05 07:52:15;;;;;;;52.97;31.20;;;3.80;99.90;;;;;;4932644;29;20207;-72
2023/03/05 07:54:40;;;;;;;56.00;33.23;;;3.90;99.90;;;;;;4939099;29;20650;-72
2023/03/05 07:57:07;;;;;;;48.53;30.40;;;4.00;99.90;;;;;;4938216;28;20186;-73
2023/03/05 07:59:33;;;;;;;45.77;28.80;;;4.00;99.90;;;;;;4932395;29;20182;-72
2023/03/05 08:02:00;;;;;;;50.47;30.00;;;4.00;99.90;;;;;;4933750;29;20430;-72
2023/03/05 08:04:25;;;;;;;49.93;28.57;;;3.90;99.90;;;;;;4935330;29;20555;-73
2023/03/05 08:06:52;;;;;;;46.43;29.20;;;4.00;99.90;;;;;;4951730;29;20181;-73
2023/03/05 08:09:18;;;;;;;50.03;29.20;;;4.00;99.90;;;;;;4952448;28;20228;-72
2023/03/05 08:11:44;;;;;;;48.97;29.57;;;4.00;99.90;;;;;;4951865;29;20205;-72
2023/03/05 08:14:10;;;;;;;47.10;29.27;;;4.00;99.90;;;;;;4952111;28;20181;-71
2023/03/05 08:16:38;;;;;;;54.63;28.90;;;3.90;99.90;;;;;;4933804;29;20296;-72
2023/03/05 08:19:04;;;;;;;52.57;28.23;;;3.90;99.90;;;;;;4932275;29;20179;-69
2023/03/05 08:21:34;;;;;;;53.73;29.77;;;3.90;99.90;;;;;;4933634;29;20211;-69
2023/03/05 08:24:03;;;;;;;44.70;28.87;;;3.90;99.90;;;;;;4932979;29;20186;-69
2023/03/05 08:26:30;;;;;;;55.17;27.13;;;3.90;99.90;;;;;;4934407;29;20718;-69
2023/03/05 08:28:56;;;;;;;55.83;34.00;;;3.90;99.90;;;;;;4933363;29;20560;-71
2023/03/05 08:31:25;;;;;;;42.30;26.23;;;3.90;99.90;;;;;;4933703;29;20214;-71
2023/03/05 08:33:53;;;;;;;49.93;27.10;;;3.90;99.90;;;;;;4933860;29;20190;-72
2023/03/05 08:36:19;;;;;;;48.07;26.73;;;4.00;99.90;;;;;;4950449;28;20260;-72
2023/03/05 08:38:47;;;;;;;50.07;28.13;;;4.10;99.90;;;;;;4951325;28;20186;-71
2023/03/05 08:41:14;;;;;;;51.13;28.67;;;4.10;99.90;;;;;;4951659;28;20576;-72
2023/03/05 08:43:40;;;;;;;47.67;27.53;;;4.20;99.90;;;;;;4952468;28;20190;-71
2023/03/05 08:46:06;;;;;;;50.57;27.90;;;4.30;99.90;;;;;;4935783;29;20178;-75
2023/03/05 08:48:32;;;;;;;51.00;26.73;;;4.50;99.90;;;;;;4928057;29;20670;-73
2023/03/05 08:51:08;;;;;;;46.97;27.60;;;4.60;99.90;;;;;;4930593;29;20205;-75
2023/03/05 08:53:34;;;;;;;46.17;27.13;;;4.70;99.90;;;;;;4940552;29;20261;-73
2023/03/05 08:56:00;;;;;;;48.13;29.40;;;4.80;99.90;;;;;;4933934;29;20219;-75
2023/03/05 08:58:26;;;;;;;48.30;27.97;;;4.90;99.90;;;;;;4934165;29;20178;-75
2023/03/05 09:00:52;;;;;;;47.77;28.50;;;5.00;99.90;;;;;;4936757;29;20218;-75
2023/03/05 09:03:17;;;;;;;50.57;28.13;;;5.00;99.90;;;;;;4948177;29;20651;-75
2023/03/05 09:05:43;;;;;;;46.57;28.07;;;5.00;99.90;;;;;;4948169;29;20201;-75
2023/03/05 09:08:09;;;;;;;46.13;26.83;;;4.90;99.90;;;;;;4938188;29;20249;-75
2023/03/05 09:10:35;;;;;;;47.40;27.30;;;4.90;99.90;;;;;;4935413;29;20287;-75
2023/03/05 09:13:02;;;;;;;42.93;25.30;;;4.90;99.90;;;;;;4938035;29;20197;-75
2023/03/05 09:15:31;;;;;;;44.87;25.03;;;4.90;99.90;;;;;;4936378;29;20285;-74
2023/03/05 09:17:58;;;;;;;46.97;27.10;;;4.90;99.90;;;;;;4935414;29;20182;-75
2023/03/05 09:20:24;;;;;;;47.20;25.30;;;5.00;99.90;;;;;;4936280;29;20643;-74
2023/03/05 09:22:50;;;;;;;44.77;25.13;;;5.00;99.90;;;;;;4943529;29;20221;-74
2023/03/05 09:25:15;;;;;;;50.87;27.67;;;5.00;99.90;;;;;;4955732;28;20268;-75
2023/03/05 09:27:42;;;;;;;43.00;25.17;;;5.00;99.90;;;;;;4954291;29;20186;-74
2023/03/05 09:30:10;;;;;;;44.37;25.67;;;4.90;99.90;;;;;;4953937;28;20613;-74
2023/03/05 09:32:36;;;;;;;57.03;25.53;;;4.90;99.90;;;;;;4948065;29;20606;-75
2023/03/05 09:35:06;;;;;;;51.33;28.17;;;5.00;99.90;;;;;;4935191;29;20182;-77
2023/03/05 09:37:32;;;;;;;45.83;24.43;;;5.10;99.90;;;;;;4937672;29;20186;-75
2023/03/05 09:39:58;;;;;;;34.93;22.00;;;5.10;99.90;;;;;;4935038;29;20317;-76
2023/03/05 09:42:45;;;;;;;49.00;25.00;;;5.10;99.90;;;;;;4940594;29;20285;-75
2023/03/05 09:45:26;;;;;;;41.10;24.20;;;5.10;99.90;;;;;;4956429;28;20189;-76
2023/03/05 09:48:24;;;;;;;45.67;24.87;;;5.10;99.90;;;;;;4957771;28;20221;-75
2023/03/05 09:51:03;;;;;;;43.23;23.97;;;5.10;99.90;;;;;;4913839;28;20221;-76
2023/03/05 09:53:54;;;;;;;40.77;23.60;;;5.20;99.90;;;;;;4941586;29;20674;-75
2023/03/05 09:56:25;;;;;;;38.97;21.87;;;5.20;99.90;;;;;;4934945;29;20305;-75
2023/03/05 09:59:02;;;;;;;41.73;24.00;;;5.20;99.90;;;;;;4934505;29;20662;-74
2023/03/05 10:01:41;;;;;;;66.53;35.83;;;5.30;99.90;;;;;;4934159;29;20778;-74
2023/03/05 10:04:22;;;;;;;43.37;23.67;;;5.20;99.90;;;;;;4935718;29;20210;-75
2023/03/05 10:07:06;;;;;;;50.40;27.20;;;5.30;99.90;;;;;;4935940;29;20197;-75
2023/03/05 10:09:44;;;;;;;42.87;25.00;;;5.30;99.90;;;;;;4934721;29;20241;-74
2023/03/05 10:12:26;;;;;;;40.27;24.03;;;5.40;99.90;;;;;;4936878;29;20302;-75
2023/03/05 10:14:53;;;;;;;35.07;23.43;;;5.40;99.90;;;;;;4934371;29;20187;-74
2023/03/05 10:17:26;;;;;;;37.83;25.10;;;5.50;99.90;;;;;;4935665;29;20182;-74
2023/03/05 10:20:21;;;;;;;36.77;23.80;;;5.50;99.90;;;;;;4934947;29;20237;-75
2023/03/05 10:23:08;;;;;;;35.03;22.80;;;5.70;99.90;;;;;;4941404;29;20182;-74
2023/03/05 10:25:52;;;;;;;38.20;23.27;;;5.90;99.90;;;;;;4953348;29;20181;-74
2023/03/05 10:28:25;;;;;;;38.43;22.57;;;5.80;99.90;;;;;;4953197;29;20197;-74
2023/03/05 10:30:53;;;;;;;33.57;21.27;;;5.90;99.90;;;;;;4954483;28;20206;-74
2023/03/05 10:33:22;;;;;;;39.20;20.77;;;6.00;99.90;;;;;;4940512;29;20186;-73
2023/03/05 10:35:53;;;;;;;40.00;21.97;;;6.20;99.90;;;;;;4938898;29;20614;-72
2023/03/05 10:38:44;;;;;;;36.00;22.07;;;6.20;99.90;;;;;;4948625;28;20179;-72
2023/03/05 10:41:53;;;;;;;42.40;24.53;;;6.20;99.90;;;;;;4934949;29;20210;-74
2023/03/05 10:44:55;;;;;;;41.90;23.33;;;6.20;99.90;;;;;;4952762;28;20181;-74
2023/03/05 10:47:23;;;;;;;36.23;22.27;;;6.20;99.90;;;;;;4937208;28;20235;-74
2023/03/05 10:49:51;;;;;;;38.67;25.93;;;6.20;99.90;;;;;;4953349;29;20237;-75
2023/03/05 10:52:32;;;;;;;36.30;24.57;;;6.20;99.90;;;;;;4946791;28;20615;-73
2023/03/05 10:54:58;;;;;;;30.97;23.67;;;6.10;99.90;;;;;;4953694;28;20182;-74
2023/03/05 10:57:32;;;;;;;31.90;23.80;;;6.10;99.90;;;;;;4953952;28;20673;-73
2023/03/05 11:00:20;;;;;;;32.37;23.33;;;6.00;99.90;;;;;;4952371;28;20647;-75
2023/03/05 11:03:02;;;;;;;33.33;21.97;;;5.80;99.90;;;;;;4947248;28;20185;-74
2023/03/05 11:05:41;;;;;;;31.83;20.27;;;5.70;99.90;;;;;;4933904;29;20259;-74
2023/03/05 11:08:27;;;;;;;28.00;20.00;;;5.70;99.90;;;;;;4957138;28;20228;-81
2023/03/05 11:11:13;;;;;;;29.60;20.70;;;5.80;99.90;;;;;;4954278;29;20210;-81
2023/03/05 11:13:54;;;;;;;29.77;19.93;;;5.80;99.90;;;;;;4955015;29;20182;-77
2023/03/05 11:16:31;;;;;;;29.33;20.83;;;5.80;99.90;;;;;;4956511;29;20224;-79
2023/03/05 11:19:12;;;;;;;30.30;21.67;;;5.90;99.90;;;;;;4952115;29;20233;-69
2023/03/05 11:21:38;;;;;;;29.83;21.43;;;6.10;99.90;;;;;;4953019;29;20263;-74
2023/03/05 11:24:04;;;;;;;29.33;20.80;;;6.30;99.90;;;;;;4930378;28;20587;-73
2023/03/05 11:26:30;;;;;;;30.60;20.77;;;6.50;99.90;;;;;;4934291;29;20593;-74
2023/03/05 11:28:58;;;;;;;28.97;21.10;;;6.60;99.90;;;;;;4934175;29;20228;-73
2023/03/05 11:31:28;;;;;;;26.73;19.77;;;6.60;99.90;;;;;;4933851;29;20213;-74
2023/03/05 11:34:05;;;;;;;37.27;21.20;;;6.70;99.90;;;;;;4947985;28;20201;-74
2023/03/05 11:36:38;;;;;;;31.17;20.83;;;6.80;99.90;;;;;;4952022;28;20201;-73
2023/03/05 11:39:06;;;;;;;28.80;19.07;;;6.90;99.90;;;;;;4953161;28;20230;-75
2023/03/05 11:41:48;;;;;;;28.17;20.37;;;6.60;99.90;;;;;;4953475;28;20197;-74
2023/03/05 11:44:22;;;;;;;54.57;47.10;;;6.50;99.90;;;;;;4937190;29;20186;-73
2023/03/05 11:47:01;;;;;;;30.20;20.70;;;6.60;99.90;;;;;;4933551;29;20217;-73
2023/03/05 11:49:29;;;;;;;32.17;20.77;;;6.70;99.90;;;;;;4933761;29;20288;-72
2023/03/05 11:51:58;;;;;;;27.57;19.63;;;6.70;99.90;;;;;;4933834;29;20205;-73
2023/03/05 11:54:32;;;;;;;26.20;17.03;;;6.80;99.90;;;;;;4950390;29;20188;-73
2023/03/05 11:57:01;;;;;;;28.20;18.53;;;6.90;99.90;;;;;;4954937;28;20209;-73
2023/03/05 11:59:32;;;;;;;27.00;19.27;;;6.70;99.90;;;;;;4955469;29;20177;-74
2023/03/05 12:02:02;;;;;;;28.83;17.93;;;6.70;99.90;;;;;;4954624;28;20213;-74
2023/03/05 12:04:30;;;;;;;27.03;18.33;;;6.80;99.90;;;;;;4936363;29;20182;-74
2023/03/05 12:07:00;;;;;;;25.73;17.43;;;6.80;99.90;;;;;;4933535;29;20189;-74
2023/03/05 12:09:39;;;;;;;24.80;16.57;;;6.90;99.90;;;;;;4932875;29;20285;-74
2023/03/05 12:12:44;;;;;;;25.47;16.93;;;6.80;99.90;;;;;;4933657;29;20216;-74
2023/03/05 12:15:16;;;;;;;30.77;18.23;;;6.60;99.90;;;;;;4913855;29;20195;-74
2023/03/05 12:17:44;;;;;;;26.03;18.13;;;6.50;99.90;;;;;;4914992;29;20276;-74
2023/03/05 12:20:40;;;;;;;24.83;17.03;;;6.40;99.90;;;;;;4914303;29;20179;-73
2023/03/05 12:23:14;;;;;;;33.17;17.73;;;6.50;99.90;;;;;;4927175;29;20188;-73
2023/03/05 12:25:53;;;;;;;25.83;17.43;;;6.60;99.90;;;;;;4954132;28;20629;-73
2023/03/05 12:28:28;;;;;;;25.70;16.87;;;6.60;99.90;;;;;;4954852;28;20236;-73
2023/03/05 12:30:55;;;;;;;27.50;17.33;;;6.70;99.90;;;;;;4953906;28;20640;-73
2023/03/05 12:33:39;;;;;;;29.83;18.43;;;6.70;99.90;;;;;;4948343;28;20209;-72
2023/03/05 12:36:16;;;;;;;30.20;17.30;;;6.80;99.90;;;;;;4937462;29;20272;-76
2023/03/05 12:39:08;;;;;;;24.77;17.57;;;6.80;99.90;;;;;;4937281;29;20250;-72
2023/03/05 12:41:34;;;;;;;26.83;15.47;;;6.80;99.90;;;;;;4933919;29;20209;-73
2023/03/05 12:44:28;;;;;;;23.97;15.47;;;6.90;99.90;;;;;;4948743;28;20674;-74
2023/03/05 12:47:14;;;;;;;30.17;15.57;;;6.80;99.90;;;;;;4957241;28;20197;-73
2023/03/05 12:49:47;;;;;;;23.07;15.60;;;6.60;99.90;;;;;;4956168;28;20193;-75
2023/03/05 12:52:22;;;;;;;29.23;17.03;;;6.40;99.90;;;;;;4956186;28;20297;-72
2023/03/05 12:55:16;;;;;;;24.27;15.57;;;6.20;99.90;;;;;;4923257;29;20187;-73
2023/03/05 12:57:45;;;;;;;25.13;16.43;;;6.10;99.90;;;;;;4918982;29;20191;-73
2023/03/05 13:00:35;;;;;;;23.43;16.47;;;6.10;99.90;;;;;;4932958;29;20182;-73
2023/03/05 13:03:07;;;;;;;25.17;18.43;;;6.10;99.90;;;;;;4932524;29;20193;-73
2023/03/05 13:05:36;;;;;;;27.40;19.37;;;6.20;99.90;;;;;;4954591;28;20189;-73
2023/03/05 13:08:11;;;;;;;25.30;18.27;;;6.30;99.90;;;;;;4955579;28;20193;-73
2023/03/05 13:10:38;;;;;;;24.03;16.47;;;6.30;99.90;;;;;;4954911;28;20217;-73
2023/03/05 13:13:04;;;;;;;30.87;19.07;;;6.30;99.90;;;;;;4952931;29;20198;-73
2023/03/05 13:15:31;;;;;;;24.73;17.67;;;6.20;99.90;;;;;;4955496;28;20670;-72
2023/03/05 13:18:02;;;;;;;25.77;18.37;;;6.20;99.90;;;;;;4953981;29;20189;-73
2023/03/05 13:20:41;;;;;;;24.67;18.83;;;6.20;99.90;;;;;;4954723;28;20280;-72
2023/03/05 13:23:10;;;;;;;42.40;20.73;;;6.10;99.90;;;;;;4949250;29;20178;-73
2023/03/05 13:25:35;;;;;;;27.30;20.87;;;6.10;99.90;;;;;;4936547;29;20178;-72
2023/03/05 13:28:10;;;;;;;26.07;23.00;;;6.10;99.90;;;;;;4936429;29;20334;-72
2023/03/05 13:30:36;;;;;;;25.97;21.57;;;6.20;99.90;;;;;;4936133;29;20212;-72
2023/03/05 13:33:04;;;;;;;23.83;20.40;;;6.20;99.90;;;;;;4939965;29;20178;-73
2023/03/05 13:35:31;;;;;;;24.07;19.83;;;6.30;99.90;;;;;;4955420;28;20711;-73
2023/03/05 13:37:57;;;;;;;27.03;19.10;;;6.50;99.90;;;;;;4954261;28;20673;-73
2023/03/05 13:40:26;;;;;;;25.80;19.17;;;6.50;99.90;;;;;;4955012;28;20186;-72
2023/03/05 13:42:54;;;;;;;24.60;17.87;;;6.60;99.90;;;;;;4951137;28;20174;-73
2023/03/05 13:45:25;;;;;;;29.07;18.87;;;6.60;99.90;;;;;;4936017;29;20191;-73
2023/03/05 13:48:02;;;;;;;28.57;17.67;;;6.50;99.90;;;;;;4935265;29;20186;-73
2023/03/05 13:50:31;;;;;;;27.83;19.27;;;6.40;99.90;;;;;;4934913;29;20190;-72
2023/03/05 13:53:22;;;;;;;26.77;20.70;;;6.20;99.90;;;;;;4937420;29;20214;-73
2023/03/05 13:55:50;;;;;;;31.83;21.73;;;6.20;99.90;;;;;;4943088;29;20217;-73
2023/03/05 13:58:51;;;;;;;28.43;22.13;;;6.10;99.90;;;;;;4954950;28;20688;-73
2023/03/05 14:01:43;;;;;;;24.90;21.77;;;6.10;99.90;;;;;;4954779;28;20217;-73
2023/03/05 14:04:12;;;;;;;26.87;21.87;;;6.10;99.90;;;;;;4932815;29;20584;-73
2023/03/05 14:07:01;;;;;;;33.40;23.37;;;6.10;99.90;;;;;;4935846;29;20187;-73
2023/03/05 14:09:31;;;;;;;33.83;24.70;;;6.10;99.90;;;;;;4921734;29;20195;-73
2023/03/05 14:12:01;;;;;;;32.43;24.30;;;6.10;99.90;;;;;;4934255;29;20213;-73
2023/03/05 14:14:29;;;;;;;30.93;25.03;;;6.10;99.90;;;;;;4949141;29;20190;-73
2023/03/05 14:16:54;;;;;;;29.87;23.93;;;6.10;99.90;;;;;;4935298;29;20206;-73
2023/03/05 14:19:36;;;;;;;31.53;25.47;;;6.00;99.90;;;;;;4933983;29;20197;-73
2023/03/05 14:22:03;;;;;;;100.83;91.30;;;6.00;99.90;;;;;;4934213;29;20214;-73
2023/03/05 14:24:30;;;;;;;33.17;25.27;;;5.90;99.90;;;;;;4947702;29;20843;-73
2023/03/05 14:27:12;;;;;;;32.33;24.83;;;5.90;99.90;;;;;;4954800;28;20193;-73
2023/03/05 14:29:44;;;;;;;30.97;24.03;;;5.90;99.90;;;;;;4954259;28;20190;-72
2023/03/05 14:32:19;;;;;;;33.60;25.83;;;5.80;99.90;;;;;;4954544;28;20209;-73
2023/03/05 14:34:51;;;;;;;30.10;23.63;;;5.80;99.90;;;;;;4937131;29;20182;-73
2023/03/05 14:37:23;;;;;;;31.10;24.07;;;5.80;99.90;;;;;;4935434;29;20222;-73
2023/03/05 14:39:56;;;;;;;29.03;23.07;;;5.80;99.90;;;;;;4933749;29;20190;-72
2023/03/05 14:42:26;;;;;;;30.33;22.80;;;5.70;99.90;;;;;;4935105;29;20202;-73
2023/03/05 14:44:54;;;;;;;26.37;21.90;;;5.70;99.90;;;;;;4950110;28;20205;-73
2023/03/05 14:47:21;;;;;;;27.50;22.50;;;5.70;99.90;;;;;;4952923;28;20186;-73
2023/03/05 14:49:47;;;;;;;25.30;21.80;;;5.70;99.90;;;;;;4952656;29;20181;-73
2023/03/05 14:52:15;;;;;;;29.17;21.77;;;5.60;99.90;;;;;;4954060;29;20701;-73
2023/03/05 14:54:41;;;;;;;27.83;22.90;;;5.60;99.90;;;;;;4938034;28;20281;-72
2023/03/05 14:57:10;;;;;;;29.43;21.47;;;5.60;99.90;;;;;;4933526;29;20313;-72
2023/03/05 14:59:35;;;;;;;33.00;22.87;;;5.60;99.90;;;;;;4934480;29;20186;-72
2023/03/05 15:02:01;;;;;;;29.90;22.63;;;5.50;99.90;;;;;;4934710;29;20682;-73
2023/03/05 15:04:27;;;;;;;28.73;21.37;;;5.50;99.90;;;;;;4946265;28;20643;-73
2023/03/05 15:06:53;;;;;;;29.70;20.17;;;5.50;99.90;;;;;;4952799;29;20181;-73
2023/03/05 15:09:19;;;;;;;27.73;21.00;;;5.40;99.90;;;;;;4952561;28;20181;-73
2023/03/05 15:11:46;;;;;;;29.10;19.67;;;5.40;99.90;;;;;;4953919;28;20198;-73
2023/03/05 15:14:12;;;;;;;27.53;18.20;;;5.40;99.90;;;;;;4943084;28;20193;-73
2023/03/05 15:16:43;;;;;;;25.27;19.27;;;5.30;99.90;;;;;;4933300;29;20737;-73
2023/03/05 15:19:12;;;;;;;37.40;22.80;;;5.30;99.90;;;;;;4934438;29;20186;-73
2023/03/05 15:21:38;;;;;;;44.73;25.30;;;5.30;99.90;;;;;;4935480;29;20199;-74
2023/03/05 15:24:04;;;;;;;29.27;20.07;;;5.30;99.90;;;;;;4945060;29;20189;-73
2023/03/05 15:26:30;;;;;;;26.10;17.13;;;5.30;99.90;;;;;;4953426;28;20637;-72
2023/03/05 15:28:56;;;;;;;26.30;17.67;;;5.20;99.90;;;;;;4953101;28;20658;-73
2023/03/05 15:31:21;;;;;;;22.57;15.90;;;5.20;99.90;;;;;;4952553;29;20748;-74
2023/03/05 15:33:47;;;;;;;25.30;15.87;;;5.30;99.90;;;;;;4945645;29;20182;-74
2023/03/05 15:36:13;;;;;;;31.10;16.27;;;5.30;99.90;;;;;;4934595;29;20240;-75
2023/03/05 15:38:40;;;;;;;28.73;16.50;;;5.40;99.90;;;;;;4933269;29;20186;-73
2023/03/05 15:41:06;;;;;;;21.60;15.57;;;5.30;99.90;;;;;;4933375;29;20266;-74
2023/03/05 15:43:32;;;;;;;28.90;15.73;;;5.20;99.90;;;;;;4937874;29;20204;-73
2023/03/05 15:45:58;;;;;;;22.60;15.57;;;5.10;99.90;;;;;;4953634;28;20181;-73
2023/03/05 15:48:24;;;;;;;21.93;14.70;;;5.00;99.90;;;;;;4953374;29;20191;-73
2023/03/05 15:50:49;;;;;;;24.63;16.00;;;5.10;99.90;;;;;;4953318;28;20209;-73
2023/03/05 15:53:16;;;;;;;21.20;15.40;;;5.10;99.90;;;;;;4949792;29;20921;-73
2023/03/05 15:55:44;;;;;;;21.50;15.73;;;5.10;99.90;;;;;;4933109;29;20202;-73
2023/03/05 15:58:15;;;;;;;24.97;16.23;;;5.20;99.90;;;;;;4934578;29;20179;-74
2023/03/05 16:00:43;;;;;;;22.17;16.03;;;5.10;99.90;;;;;;4932757;29;20217;-74
2023/03/05 16:03:11;;;;;;;25.13;16.57;;;5.10;99.90;;;;;;4933998;29;20181;-74
2023/03/05 16:05:37;;;;;;;27.27;15.20;;;5.10;99.90;;;;;;4952218;28;20272;-74
2023/03/05 16:08:04;;;;;;;21.97;15.30;;;5.10;99.90;;;;;;4957007;28;20678;-74
2023/03/05 16:10:30;;;;;;;21.47;15.93;;;5.10;99.90;;;;;;4956769;28;20186;-74
2023/03/05 16:13:06;;;;;;;22.50;15.20;;;5.10;99.90;;;;;;4956056;28;20178;-73
2023/03/05 16:15:33;;;;;;;22.57;15.70;;;5.10;99.90;;;;;;4956836;23;20238;-77
2023/03/05 16:18:03;;;;;;;25.67;14.70;;;5.00;99.90;;;;;;4936194;29;20245;-77
2023/03/05 16:20:29;;;;;;;21.80;13.97;;;5.00;99.90;;;;;;4937673;29;20185;-77
2023/03/05 16:22:55;;;;;;;22.43;14.77;;;5.00;99.90;;;;;;4937954;29;20595;-77
2023/03/05 16:25:21;;;;;;;24.97;14.47;;;5.00;99.90;;;;;;4921418;29;20242;-77
2023/03/05 16:27:47;;;;;;;24.50;16.50;;;4.90;99.90;;;;;;4918786;29;20195;-77
2023/03/05 16:30:16;;;;;;;20.97;14.77;;;4.90;99.90;;;;;;4918633;29;20212;-77
2023/03/05 16:32:43;;;;;;;21.60;14.83;;;4.90;99.90;;;;;;4918703;29;20187;-77
2023/03/05 16:35:11;;;;;;;22.23;14.80;;;4.90;99.90;;;;;;4902398;29;20302;-77
2023/03/05 16:37:38;;;;;;;20.03;14.40;;;4.80;99.90;;;;;;4898661;29;20441;-77
2023/03/05 16:40:05;;;;;;;25.00;14.43;;;4.80;99.90;;;;;;4898812;29;20220;-77
2023/03/05 16:42:31;;;;;;;20.93;13.30;;;4.70;99.90;;;;;;4900726;29;20525;-77
2023/03/05 16:44:57;;;;;;;21.97;14.20;;;4.80;99.90;;;;;;4913372;29;20261;-77
2023/03/05 16:47:23;;;;;;;18.03;13.47;;;4.70;99.90;;;;;;4920473;29;20267;-76
2023/03/05 16:49:49;;;;;;;20.30;13.93;;;4.80;99.90;;;;;;4918498;29;20274;-76